Time;durP1;ratioP1;P1;durP2;ratioP2;P2;SDS_P1;SDS_P2;PMS_P1;PMS_P2;Temp;Humidity;BMP_temperature;BMP_pressure;BME280_temperature;BME280_humidity;BME280_pressure;Samples;Min_cycle;Max_cycle;Signal;HPM_P1;HPM_P2
2022/10/14 00:02:18;;;;;;;7.55;2.20;;;;;;;10.88;100.00;99858.88;4976567;28;20094;-90
2022/10/14 00:04:45;;;;;;;6.47;2.10;;;;;;;10.89;100.00;99863.19;4975457;28;20062;-91
2022/10/14 00:07:11;;;;;;;7.80;2.13;;;;;;;10.73;100.00;99834.34;4966068;28;20047;-90
2022/10/14 00:09:40;;;;;;;7.15;2.20;;;;;;;10.99;100.00;99867.00;4967999;28;20445;-90
2022/10/14 00:12:07;;;;;;;10.27;2.17;;;;;;;10.99;100.00;99863.53;4974999;28;20421;-91
2022/10/14 00:14:34;;;;;;;9.75;1.98;;;;;;;10.93;100.00;99880.44;4972320;28;20047;-91
2022/10/14 00:17:00;;;;;;;6.95;1.80;;;;;;;10.81;100.00;99863.56;4969709;28;20433;-92
2022/10/14 00:19:27;;;;;;;9.27;2.20;;;;;;;10.80;100.00;99861.91;4940536;29;20059;-91
2022/10/14 00:21:54;;;;;;;8.75;2.08;;;;;;;10.98;100.00;99862.69;4973823;28;20547;-91
2022/10/14 00:24:21;;;;;;;7.25;2.08;;;;;;;11.07;100.00;99868.38;4974284;28;20066;-91
2022/10/14 00:26:48;;;;;;;8.75;2.22;;;;;;;11.01;100.00;99862.53;4958564;28;20054;-91
2022/10/14 00:29:17;;;;;;;7.95;2.08;;;;;;;11.20;100.00;99893.81;4958916;28;20121;-90
2022/10/14 00:31:45;;;;;;;7.32;2.22;;;;;;;11.10;100.00;99890.03;4974949;28;20055;-92
2022/10/14 00:34:14;;;;;;;5.25;1.92;;;;;;;10.87;100.00;99872.91;4959485;28;20086;-92
2022/10/14 00:36:42;;;;;;;4.88;1.45;;;;;;;11.06;100.00;99864.06;4959342;28;20046;-92
2022/10/14 00:39:09;;;;;;;7.68;1.98;;;;;;;11.02;100.00;99847.66;4975615;28;20444;-92
2022/10/14 00:41:37;;;;;;;9.05;1.83;;;;;;;11.22;100.00;99870.16;4975588;28;20052;-90
2022/10/14 00:44:10;;;;;;;7.93;1.63;;;;;;;11.19;100.00;99880.78;4975289;28;20437;-90
2022/10/14 00:46:38;;;;;;;6.75;1.73;;;;;;;11.31;100.00;99887.16;4949452;28;20050;-91
2022/10/14 00:49:14;;;;;;;6.00;1.80;;;;;;;11.19;100.00;99879.03;4974668;28;20097;-90
2022/10/14 00:51:44;;;;;;;8.00;2.30;;;;;;;11.15;100.00;99863.56;4974252;28;20059;-90
2022/10/14 00:54:13;;;;;;;8.25;2.15;;;;;;;11.02;100.00;99851.13;4957608;28;20106;-90
2022/10/14 00:56:42;;;;;;;6.40;1.90;;;;;;;11.07;100.00;99857.91;4974711;28;20058;-90
2022/10/14 00:59:09;;;;;;;7.32;2.45;;;;;;;11.30;100.00;99867.16;4957536;28;20485;-89
2022/10/14 01:01:36;;;;;;;7.00;2.03;;;;;;;11.28;100.00;99859.38;4975741;28;20053;-88
2022/10/14 01:04:03;;;;;;;4.38;1.70;;;;;;;11.13;100.00;99841.84;4957856;28;20047;-90
2022/10/14 01:06:42;;;;;;;6.38;2.20;;;;;;;11.11;100.00;99862.03;4971578;28;20098;-92
2022/10/14 01:09:17;;;;;;;11.02;4.03;;;;;;;11.08;100.00;99860.41;4975255;28;20113;-92
2022/10/14 01:12:06;;;;;;;7.07;2.35;;;;;;;11.13;100.00;99834.81;4971912;28;20051;-91
2022/10/14 01:15:06;;;;;;;10.60;2.70;;;;;;;11.13;100.00;99839.22;4947447;28;20031;-91
2022/10/14 01:17:57;;;;;;;8.95;2.67;;;;;;;11.23;100.00;99840.41;4956827;28;20047;-91
2022/10/14 01:20:42;;;;;;;9.63;3.35;;;;;;;11.06;100.00;99824.78;4975007;28;20491;-91
2022/10/14 01:23:15;;;;;;;12.57;3.67;;;;;;;11.23;100.00;99852.69;4962220;28;20050;-91
2022/10/14 01:26:19;;;;;;;11.23;3.28;;;;;;;11.36;100.00;99830.09;4959535;28;20046;-91
2022/10/14 01:28:48;;;;;;;;;;;;;;;11.44;100.00;99858.50;4961759;28;20055;-91
2022/10/14 01:31:29;;;;;;;8.10;2.90;;;;;;;11.34;100.00;99831.97;4974252;28;19969;-92
2022/10/14 01:34:01;;;;;;;10.32;3.20;;;;;;;11.56;100.00;99858.69;4975035;28;20051;-91
2022/10/14 01:36:37;;;;;;;9.05;2.80;;;;;;;11.33;100.00;99797.06;4957377;28;20456;-92
2022/10/14 01:39:19;;;;;;;8.50;2.90;;;;;;;11.40;100.00;99805.41;4974512;28;20102;-92
2022/10/14 01:42:08;;;;;;;9.65;2.75;;;;;;;11.77;100.00;99838.28;4959522;28;20105;-91
2022/10/14 01:44:41;;;;;;;10.90;2.65;;;;;;;11.76;100.00;99815.59;4963593;28;20097;-91
2022/10/14 01:47:09;;;;;;;12.45;3.40;;;;;;;11.69;100.00;99837.88;4956448;28;20051;-92
2022/10/14 01:49:43;;;;;;;8.43;2.35;;;;;;;11.63;100.00;99811.97;4974814;28;20117;-92
2022/10/14 01:52:15;;;;;;;9.88;2.67;;;;;;;11.53;100.00;99801.19;4973890;28;20058;-92
2022/10/14 01:54:45;;;;;;;8.00;2.85;;;;;;;11.40;100.00;99760.84;4969426;28;20059;-92
2022/10/14 01:57:18;;;;;;;7.63;2.53;;;;;;;11.65;100.00;99798.78;4973689;28;20058;-92
2022/10/14 01:59:46;;;;;;;8.83;2.63;;;;;;;11.64;100.00;99781.38;4971769;28;20118;-92
2022/10/14 02:02:13;;;;;;;9.38;3.03;;;;;;;11.44;100.00;99778.09;4957798;28;20066;-92
2022/10/14 02:04:40;;;;;;;12.93;3.53;;;;;;;11.56;100.00;99782.66;4955130;28;20058;-92
2022/10/14 02:07:12;;;;;;;11.88;2.67;;;;;;;11.45;100.00;99761.44;4973442;28;20544;-92
2022/10/14 02:10:29;;;;;;;6.40;2.40;;;;;;;11.77;100.00;99804.19;4957927;28;20050;-92
2022/10/14 02:13:17;;;;;;;6.45;2.22;;;;;;;11.68;100.00;99778.47;4931333;29;20125;-91
2022/10/14 02:16:11;;;;;;;8.75;2.40;;;;;;;11.92;100.00;99810.34;4968151;28;20055;-92
2022/10/14 02:19:04;;;;;;;9.60;2.80;;;;;;;11.99;100.00;99816.09;4959536;28;20129;-91
2022/10/14 02:21:40;;;;;;;11.52;2.42;;;;;;;11.92;100.00;99792.00;4974047;28;20486;-92
2022/10/14 02:24:18;;;;;;;6.97;2.00;;;;;;;11.93;100.00;99793.69;4973973;28;20062;-92
2022/10/14 02:26:48;;;;;;;8.35;2.15;;;;;;;11.75;100.00;99794.69;4973756;28;20551;-92
2022/10/14 02:29:19;;;;;;;7.82;2.30;;;;;;;11.87;100.00;99794.00;4958061;28;20047;-92
2022/10/14 02:31:47;;;;;;;6.18;1.85;;;;;;;11.87;100.00;99793.16;4958021;28;20109;-93
2022/10/14 02:34:19;;;;;;;6.75;2.13;;;;;;;11.87;100.00;99794.00;4962549;28;20409;-89
2022/10/14 02:36:47;;;;;;;9.07;2.10;;;;;;;11.82;100.00;99790.78;4967739;28;20054;-91
2022/10/14 02:39:20;;;;;;;8.45;1.75;;;;;;;11.84;100.00;99780.22;4953479;29;20098;-91
2022/10/14 02:41:47;;;;;;;4.47;1.50;;;;;;;11.95;100.00;99788.31;4950620;28;20050;-91
2022/10/14 02:44:14;;;;;;;8.80;1.98;;;;;;;11.79;100.00;99788.34;4937718;29;20500;-91
2022/10/14 02:46:41;;;;;;;5.43;1.75;;;;;;;11.95;100.00;99786.56;4965500;28;20114;-89
2022/10/14 02:49:08;;;;;;;6.93;2.15;;;;;;;12.04;100.00;99787.81;4976623;28;20401;-90
2022/10/14 02:51:35;;;;;;;5.20;1.67;;;;;;;11.91;100.00;99771.94;4975821;28;20055;-90
2022/10/14 02:54:01;;;;;;;6.45;2.10;;;;;;;11.94;100.00;99784.03;4977345;28;20449;-90
2022/10/14 02:56:28;;;;;;;5.70;1.80;;;;;;;11.85;100.00;99774.88;4975932;28;20055;-90
2022/10/14 02:58:55;;;;;;;9.98;2.10;;;;;;;11.95;100.00;99793.56;4976087;28;20053;-90
2022/10/14 03:01:22;;;;;;;7.57;2.03;;;;;;;11.97;100.00;99776.00;4976208;28;20141;-89
2022/10/14 03:03:49;;;;;;;6.28;1.80;;;;;;;11.91;100.00;99778.97;4973111;28;20390;-89
2022/10/14 03:06:15;;;;;;;8.65;2.42;;;;;;;11.90;100.00;99783.38;4964039;28;20711;-90
2022/10/14 03:08:42;;;;;;;7.90;2.20;;;;;;;11.52;100.00;99712.13;4965129;28;20039;-89
2022/10/14 03:11:09;;;;;;;7.65;2.05;;;;;;;11.88;100.00;99763.34;4967124;28;20051;-89
2022/10/14 03:13:36;;;;;;;8.48;1.90;;;;;;;11.69;100.00;99734.75;4964696;28;20053;-89
2022/10/14 03:16:02;;;;;;;13.15;2.75;;;;;;;11.91;100.00;99786.81;4975734;28;20055;-89
2022/10/14 03:18:30;;;;;;;6.97;2.22;;;;;;;11.95;100.00;99776.06;4952600;29;20130;-90
2022/10/14 03:20:56;;;;;;;9.13;2.15;;;;;;;11.84;100.00;99756.63;4979322;28;20050;-91
2022/10/14 03:23:23;;;;;;;9.07;2.42;;;;;;;11.65;100.00;99726.22;4962759;28;20051;-90
2022/10/14 03:25:50;;;;;;;8.00;2.42;;;;;;;11.87;100.00;99756.44;4959463;28;20051;-90
2022/10/14 03:28:17;;;;;;;8.55;2.78;;;;;;;11.75;100.00;99716.03;4976014;28;20046;-90
2022/10/14 03:30:43;;;;;;;8.43;2.85;;;;;;;11.77;100.00;99732.53;4981235;28;20078;-90
2022/10/14 03:33:10;;;;;;;8.05;2.65;;;;;;;11.94;100.00;99770.91;4976359;28;20047;-90
2022/10/14 03:35:41;;;;;;;7.07;2.42;;;;;;;11.91;100.00;99755.34;4982733;28;20047;-92
2022/10/14 03:38:07;;;;;;;9.77;2.60;;;;;;;11.96;100.00;99748.91;4954267;28;20086;-91
2022/10/14 03:40:34;;;;;;;9.00;2.20;;;;;;;11.93;100.00;99759.59;4953849;29;20055;-91
2022/10/14 03:43:01;;;;;;;10.30;2.90;;;;;;;11.83;100.00;99747.03;4968925;28;20478;-91
2022/10/14 03:45:27;;;;;;;11.65;3.00;;;;;;;11.95;100.00;99768.22;4946539;28;20122;-92
2022/10/14 03:47:54;;;;;;;9.02;3.20;;;;;;;11.87;100.00;99765.16;4972673;28;20410;-92
2022/10/14 03:50:21;;;;;;;8.77;2.58;;;;;;;11.94;100.00;99745.53;4973039;28;20054;-86
2022/10/14 03:52:48;;;;;;;9.63;2.83;;;;;;;11.87;100.00;99756.44;4985146;28;20058;-89
2022/10/14 03:55:20;;;;;;;9.90;2.83;;;;;;;11.73;100.00;99741.50;4963883;28;20053;-88
2022/10/14 03:57:47;;;;;;;11.45;3.20;;;;;;;11.71;100.00;99743.38;4975746;28;20051;-89
2022/10/14 04:00:14;;;;;;;8.93;2.80;;;;;;;11.86;100.00;99746.88;4957366;28;20724;-88
2022/10/14 04:02:41;;;;;;;7.38;2.63;;;;;;;11.73;100.00;99731.84;4972251;28;20402;-89
2022/10/14 04:05:08;;;;;;;6.72;2.40;;;;;;;11.89;100.00;99767.69;4957747;28;20054;-89
2022/10/14 04:07:35;;;;;;;8.48;2.42;;;;;;;11.91;100.00;99744.84;4944853;29;20055;-89
2022/10/14 04:10:02;;;;;;;6.05;2.10;;;;;;;11.93;100.00;99724.63;4962933;28;20051;-89
2022/10/14 04:12:29;;;;;;;6.97;2.28;;;;;;;11.91;100.00;99742.22;4963544;28;20134;-89
2022/10/14 04:14:56;;;;;;;7.72;2.17;;;;;;;11.76;100.00;99747.41;4963481;28;20101;-89
2022/10/14 04:17:24;;;;;;;4.50;1.60;;;;;;;11.73;100.00;99758.06;4947298;28;20438;-89
2022/10/14 04:19:51;;;;;;;4.53;1.48;;;;;;;11.85;100.00;99780.13;4987326;28;20105;-89
2022/10/14 04:22:18;;;;;;;5.90;1.50;;;;;;;11.75;100.00;99768.47;4967739;28;20051;-88
2022/10/14 04:24:46;;;;;;;7.53;1.83;;;;;;;11.84;100.00;99775.81;4953028;29;20073;-88
2022/10/14 04:27:12;;;;;;;6.90;1.70;;;;;;;11.65;100.00;99760.31;4949735;28;20078;-89
2022/10/14 04:29:39;;;;;;;5.55;1.67;;;;;;;11.52;100.00;99759.31;4973950;28;20042;-89
2022/10/14 04:32:06;;;;;;;7.43;2.28;;;;;;;11.72;100.00;99792.25;4958583;28;20046;-89
2022/10/14 04:34:33;;;;;;;3.95;1.58;;;;;;;11.64;100.00;99761.25;4958313;28;20176;-89
2022/10/14 04:37:00;;;;;;;6.32;1.63;;;;;;;11.67;100.00;99771.56;4958981;28;20043;-89
2022/10/14 04:39:27;;;;;;;3.83;1.50;;;;;;;11.78;100.00;99777.00;4974991;28;20481;-89
2022/10/14 04:41:53;;;;;;;4.28;1.60;;;;;;;11.78;100.00;99770.94;4975005;28;20050;-88
2022/10/14 04:44:20;;;;;;;5.40;1.75;;;;;;;11.75;100.00;99753.59;4983746;28;20047;-89
2022/10/14 04:46:50;;;;;;;8.30;1.48;;;;;;;12.02;100.00;99802.78;4987812;28;20082;-89
2022/10/14 04:49:16;;;;;;;6.40;1.88;;;;;;;11.77;100.00;99770.09;4965493;28;20110;-88
2022/10/14 04:51:43;;;;;;;5.05;1.60;;;;;;;11.91;100.00;99808.66;4975849;28;20063;-90
2022/10/14 04:54:10;;;;;;;5.65;1.60;;;;;;;11.91;100.00;99794.69;4974257;28;20667;-90
2022/10/14 04:56:37;;;;;;;5.28;1.40;;;;;;;11.96;100.00;99805.78;4958090;28;20054;-90
2022/10/14 04:59:04;;;;;;;3.97;1.20;;;;;;;11.96;100.00;99822.34;4958255;28;20477;-89
2022/10/14 05:01:31;;;;;;;4.88;1.30;;;;;;;11.80;100.00;99807.56;4957484;28;20054;-89
2022/10/14 05:03:59;;;;;;;5.25;1.55;;;;;;;11.56;100.00;99756.44;4973498;28;20065;-90
2022/10/14 05:06:26;;;;;;;5.32;1.40;;;;;;;11.64;100.00;99756.00;4982425;28;20054;-90
2022/10/14 05:08:53;;;;;;;6.18;1.70;;;;;;;11.76;100.00;99764.94;4988755;28;20425;-90
2022/10/14 05:11:20;;;;;;;4.70;1.45;;;;;;;11.71;100.00;99754.69;4946964;28;20055;-86
2022/10/14 05:13:46;;;;;;;3.97;1.30;;;;;;;11.67;100.00;99754.97;4966454;28;20456;-87
2022/10/14 05:16:13;;;;;;;5.72;1.33;;;;;;;11.43;100.00;99738.88;4989467;28;20075;-87
2022/10/14 05:18:40;;;;;;;4.90;1.45;;;;;;;11.64;100.00;99784.84;4977897;28;20051;-87
2022/10/14 05:21:07;;;;;;;3.40;1.33;;;;;;;11.53;100.00;99789.84;4972895;28;20074;-91
2022/10/14 05:23:34;;;;;;;4.47;1.50;;;;;;;11.54;100.00;99787.16;4973675;28;20051;-92
2022/10/14 05:26:01;;;;;;;4.97;1.42;;;;;;;11.34;100.00;99764.66;4974748;28;20062;-88
2022/10/14 05:28:27;;;;;;;5.82;1.75;;;;;;;11.39;100.00;99783.59;4974372;28;20097;-88
2022/10/14 05:30:54;;;;;;;1.40;1.00;;;;;;;11.26;100.00;99761.66;4973075;28;20058;-88
2022/10/14 05:33:21;;;;;;;3.80;1.38;;;;;;;11.43;100.00;99771.16;4972221;28;20055;-88
2022/10/14 05:35:48;;;;;;;3.20;1.13;;;;;;;11.45;100.00;99768.47;4971222;28;20115;-88
2022/10/14 05:38:32;;;;;;;5.50;1.50;;;;;;;11.57;100.00;99778.25;4974614;28;20500;-91
2022/10/14 05:40:59;;;;;;;3.15;1.20;;;;;;;11.24;100.00;99720.72;4972077;28;20137;-88
2022/10/14 05:43:26;;;;;;;4.47;1.35;;;;;;;11.27;100.00;99729.25;4956530;28;20105;-89
2022/10/14 05:45:58;;;;;;;4.10;1.40;;;;;;;11.33;100.00;99739.41;4954241;28;20507;-88
2022/10/14 05:48:26;;;;;;;4.32;1.23;;;;;;;11.48;100.00;99753.41;4973157;28;20496;-88
2022/10/14 05:50:52;;;;;;;5.18;1.42;;;;;;;11.41;100.00;99752.06;4944715;28;20055;-90
2022/10/14 05:53:19;;;;;;;2.55;1.15;;;;;;;11.16;100.00;99710.69;4976229;28;20101;-91
2022/10/14 05:55:46;;;;;;;4.15;1.20;;;;;;;11.21;100.00;99716.50;4973703;28;20058;-92
2022/10/14 05:58:13;;;;;;;5.65;1.40;;;;;;;11.18;100.00;99733.22;4955349;29;20047;-91
2022/10/14 06:00:40;;;;;;;3.75;1.10;;;;;;;11.25;100.00;99744.22;4962297;28;20047;-90
2022/10/14 06:03:10;;;;;;;7.28;1.13;;;;;;;11.32;100.00;99774.41;4974294;28;20102;-89
2022/10/14 06:05:37;;;;;;;6.35;1.23;;;;;;;11.24;100.00;99734.66;4974704;28;20074;-89
2022/10/14 06:08:04;;;;;;;6.60;1.50;;;;;;;11.36;100.00;99747.06;4956918;28;20413;-89
2022/10/14 06:10:31;;;;;;;5.78;1.63;;;;;;;11.07;100.00;99756.56;4958823;28;20058;-89
2022/10/14 06:12:57;;;;;;;6.80;1.30;;;;;;;11.26;100.00;99787.84;4973398;28;20067;-89
2022/10/14 06:15:24;;;;;;;5.90;1.30;;;;;;;11.16;100.00;99760.47;4970156;28;20051;-89
2022/10/14 06:17:51;;;;;;;4.50;1.30;;;;;;;11.39;100.00;99819.47;4982488;28;20406;-89
2022/10/14 06:20:17;;;;;;;7.30;1.45;;;;;;;11.31;100.00;99790.19;4974071;28;20057;-90
2022/10/14 06:22:44;;;;;;;8.73;1.45;;;;;;;11.20;100.00;99769.84;4972706;28;20051;-89
2022/10/14 06:25:11;;;;;;;9.32;1.48;;;;;;;11.06;100.00;99730.47;4973117;28;20055;-90
2022/10/14 06:27:38;;;;;;;6.80;1.50;;;;;;;11.08;100.00;99739.91;4974644;28;20456;-90
2022/10/14 06:30:05;;;;;;;5.03;1.92;;;;;;;11.20;100.00;99743.63;4971434;28;20042;-90
2022/10/14 06:32:32;;;;;;;8.80;1.40;;;;;;;11.28;100.00;99766.78;4958492;28;20053;-89
2022/10/14 06:34:59;;;;;;;5.80;1.40;;;;;;;10.83;100.00;99725.56;4962043;28;20054;-90
2022/10/14 06:37:26;;;;;;;5.07;1.30;;;;;;;10.93;100.00;99780.91;4975949;28;20062;-89
2022/10/14 06:39:53;;;;;;;7.55;1.50;;;;;;;10.93;100.00;99773.03;4973941;28;20102;-90
2022/10/14 06:42:19;;;;;;;4.22;1.20;;;;;;;11.16;100.00;99794.53;4977797;28;20043;-89
2022/10/14 06:44:46;;;;;;;10.20;1.40;;;;;;;11.15;100.00;99787.59;4977544;28;20053;-89
2022/10/14 06:47:13;;;;;;;8.27;1.52;;;;;;;10.99;100.00;99745.66;4979427;28;20070;-92
2022/10/14 06:49:41;;;;;;;8.20;1.80;;;;;;;11.08;100.00;99752.19;4982803;28;20133;-91
2022/10/14 06:52:08;;;;;;;5.82;1.40;;;;;;;11.05;100.00;99749.72;4980114;28;20062;-93
2022/10/14 06:54:49;;;;;;;36.40;32.95;;;;;;;11.05;100.00;99768.91;4971980;28;20070;-93
2022/10/14 06:57:27;;;;;;;11.68;4.63;;;;;;;10.95;100.00;99752.00;4960202;28;20082;-91
2022/10/14 06:59:54;;;;;;;12.70;3.90;;;;;;;10.94;100.00;99761.66;4962657;28;20059;-90
2022/10/14 07:02:21;;;;;;;11.32;3.05;;;;;;;10.96;100.00;99764.16;4967779;28;20057;-91
2022/10/14 07:04:49;;;;;;;8.55;2.72;;;;;;;10.93;100.00;99753.88;4989466;28;20061;-91
2022/10/14 07:07:16;;;;;;;9.90;2.55;;;;;;;10.86;100.00;99742.88;4979472;28;20057;-90
2022/10/14 07:09:43;;;;;;;9.60;2.22;;;;;;;11.01;100.00;99756.91;4968069;28;20047;-90
2022/10/14 07:12:10;;;;;;;9.38;2.20;;;;;;;11.13;100.00;99784.22;4976651;28;20082;-89
2022/10/14 07:14:36;;;;;;;8.13;2.20;;;;;;;10.91;100.00;99756.56;4960408;29;20051;-90
2022/10/14 07:17:03;;;;;;;6.35;2.00;;;;;;;10.85;100.00;99770.00;4969078;28;20051;-90
2022/10/14 07:19:30;;;;;;;10.57;2.30;;;;;;;10.79;100.00;99752.84;4964166;28;20093;-91
2022/10/14 07:21:57;;;;;;;6.68;1.88;;;;;;;10.93;100.00;99774.81;4980599;28;20061;-90
2022/10/14 07:24:24;;;;;;;7.07;1.80;;;;;;;10.79;100.00;99775.56;4977826;28;20054;-92
2022/10/14 07:26:51;;;;;;;9.05;1.60;;;;;;;10.93;100.00;99778.28;4980135;28;20050;-90
2022/10/14 07:29:18;;;;;;;11.27;2.03;;;;;;;11.08;100.00;99805.41;4978060;28;20482;-90
2022/10/14 07:31:45;;;;;;;5.10;1.60;;;;;;;10.87;100.00;99749.81;4961647;28;20059;-91
2022/10/14 07:34:12;;;;;;;9.65;2.10;;;;;;;11.06;100.00;99785.47;4973042;28;20058;-89
2022/10/14 07:36:39;;;;;;;9.98;1.83;;;;;;;11.13;100.00;99776.34;4982054;28;20058;-91
2022/10/14 07:39:06;;;;;;;6.55;1.70;;;;;;;11.27;100.00;99826.22;4981635;28;20046;-91
2022/10/14 07:41:33;;;;;;;8.55;1.88;;;;;;;11.14;100.00;99789.38;4966341;28;20054;-89
2022/10/14 07:44:08;;;;;;;7.40;1.75;;;;;;;11.17;100.00;99786.59;4981161;28;20129;-88
2022/10/14 07:46:38;;;;;;;6.45;1.48;;;;;;;11.04;100.00;99755.91;4981602;28;20054;-90
2022/10/14 07:49:15;;;;;;;5.65;1.48;;;;;;;10.82;100.00;99721.25;4990109;28;20046;-90
2022/10/14 07:51:42;;;;;;;9.68;2.13;;;;;;;11.16;100.00;99794.53;4985718;28;20073;-90
2022/10/14 07:54:17;;;;;;;7.65;1.77;;;;;;;10.93;100.00;99752.09;4960749;28;20047;-86
2022/10/14 07:56:44;;;;;;;7.03;2.15;;;;;;;11.05;100.00;99800.34;4957189;28;20066;-88
2022/10/14 07:59:19;;;;;;;9.70;1.75;;;;;;;10.92;100.00;99739.91;4964739;29;20047;-92
2022/10/14 08:01:48;;;;;;;9.02;1.80;;;;;;;10.59;100.00;99670.16;4950314;28;20051;-87
2022/10/14 08:04:15;;;;;;;8.30;1.80;;;;;;;11.25;100.00;99772.22;4959056;28;20101;-87
2022/10/14 08:06:42;;;;;;;10.07;2.33;;;;;;;11.15;100.00;99756.16;4958434;28;20165;-87
2022/10/14 08:09:10;;;;;;;8.75;2.25;;;;;;;11.52;100.00;99809.13;4958598;28;20434;-86
2022/10/14 08:11:38;;;;;;;7.35;2.00;;;;;;;11.47;100.00;99809.38;4976087;28;20050;-87
2022/10/14 08:14:05;;;;;;;10.70;2.40;;;;;;;11.36;100.00;99786.38;4975851;28;20059;-90
2022/10/14 08:16:34;;;;;;;6.97;1.75;;;;;;;11.54;100.00;99796.78;4974667;28;20119;-87
2022/10/14 08:19:05;;;;;;;9.57;2.20;;;;;;;11.50;100.00;99795.25;4975766;28;20050;-87
2022/10/14 08:21:40;;;;;;;5.97;1.70;;;;;;;11.64;100.00;99808.44;4974403;28;20062;-87
2022/10/14 08:24:07;;;;;;;5.95;1.75;;;;;;;11.62;100.00;99797.19;4957692;28;20046;-86
2022/10/14 08:26:37;;;;;;;9.55;2.20;;;;;;;11.43;100.00;99793.91;4976317;28;20054;-86
2022/10/14 08:29:07;;;;;;;9.18;1.77;;;;;;;11.55;100.00;99817.66;4981184;28;20047;-87
2022/10/14 08:31:33;;;;;;;12.35;3.15;;;;;;;11.44;100.00;99795.59;4962541;28;20073;-87
2022/10/14 08:34:00;;;;;;;10.60;2.33;;;;;;;11.56;100.00;99806.25;4974256;28;20065;-85
2022/10/14 08:36:27;;;;;;;9.23;1.90;;;;;;;11.23;100.00;99753.13;4975383;28;20504;-87
2022/10/14 08:38:54;;;;;;;8.15;2.13;;;;;;;11.42;100.00;99782.59;4973867;28;20054;-88
2022/10/14 08:41:43;;;;;;;6.95;1.60;;;;;;;11.59;100.00;99818.34;4966117;28;20051;-87
2022/10/14 08:44:27;;;;;;;7.70;2.03;;;;;;;11.41;100.00;99788.75;4965506;28;20054;-87
2022/10/14 08:47:00;;;;;;;9.05;1.80;;;;;;;11.69;100.00;99831.78;4954793;28;20059;-87
2022/10/14 08:49:32;;;;;;;8.10;2.35;;;;;;;11.69;100.00;99837.03;4977245;28;20058;-87
2022/10/14 08:52:09;;;;;;;7.40;2.25;;;;;;;11.53;100.00;99821.31;4967283;28;20046;-87
2022/10/14 08:54:40;;;;;;;6.75;1.90;;;;;;;11.71;100.00;99836.00;4960823;28;20055;-86
2022/10/14 08:57:13;;;;;;;7.75;1.70;;;;;;;11.50;100.00;99787.41;4963961;28;20107;-87
2022/10/14 08:59:41;;;;;;;10.07;1.70;;;;;;;11.84;100.00;99827.44;4956790;28;20066;-86
2022/10/14 09:02:27;;;;;;;6.78;1.40;;;;;;;11.90;100.00;99812.22;4969673;28;20316;-87
2022/10/14 09:04:55;;;;;;;7.45;1.50;;;;;;;11.81;100.00;99796.13;4965308;28;20050;-87
2022/10/14 09:07:22;;;;;;;6.53;1.42;;;;;;;11.68;100.00;99765.38;4974299;28;20098;-87
2022/10/14 09:09:53;;;;;;;7.88;1.80;;;;;;;11.71;100.00;99772.22;4969563;28;20054;-87
2022/10/14 09:12:27;;;;;;;5.15;1.50;;;;;;;11.93;100.00;99812.06;4966828;28;20450;-87
2022/10/14 09:15:14;;;;;;;8.52;1.67;;;;;;;12.10;100.00;99805.81;4975151;28;20051;-88
2022/10/14 09:17:48;;;;;;;3.15;1.40;;;;;;;12.25;100.00;99769.94;4961488;28;20117;-87
2022/10/14 09:20:19;;;;;;;5.40;1.30;;;;;;;12.51;100.00;99791.97;4966972;28;20051;-87
2022/10/14 09:23:03;;;;;;;4.55;1.27;;;;;;;12.10;100.00;99732.34;4972769;28;20051;-87
2022/10/14 09:25:34;;;;;;;5.47;1.27;;;;;;;12.46;100.00;99778.28;4971038;28;20054;-87
2022/10/14 09:28:00;;;;;;;10.27;1.67;;;;;;;12.35;100.00;99746.59;4957703;28;20062;-87
2022/10/14 09:30:34;;;;;;;9.13;1.95;;;;;;;12.13;100.00;99731.31;4957030;28;20042;-86
2022/10/14 09:33:03;;;;;;;4.78;1.35;;;;;;;12.39;100.00;99758.59;4965727;28;20066;-88
2022/10/14 09:35:36;;;;;;;8.60;1.65;;;;;;;12.21;100.00;99722.97;4969644;28;20055;-87
2022/10/14 09:38:03;;;;;;;4.90;1.23;;;;;;;12.53;100.00;99765.63;4967249;28;20466;-88
2022/10/14 09:40:38;;;;;;;5.18;1.40;;;;;;;12.59;100.00;99783.66;4962690;28;20058;-88
2022/10/14 09:43:08;;;;;;;8.63;1.90;;;;;;;12.55;100.00;99784.75;4972946;28;20054;-88
2022/10/14 09:45:50;;;;;;;9.13;1.65;;;;;;;12.57;100.00;99787.28;4961857;28;20078;-88
2022/10/14 09:48:36;;;;;;;6.43;1.63;;;;;;;12.15;100.00;99730.28;4965627;28;20584;-87
2022/10/14 09:51:28;;;;;;;6.72;1.50;;;;;;;12.73;100.00;99770.53;4974274;28;20047;-87
2022/10/14 09:53:58;;;;;;;9.90;1.45;;;;;;;12.30;100.00;99743.41;4946203;28;20054;-87
2022/10/14 09:56:34;;;;;;;4.93;1.45;;;;;;;12.54;100.00;99791.81;4980240;28;20089;-88
2022/10/14 09:59:20;;;;;;;9.18;2.08;;;;;;;12.35;100.00;99775.47;4980095;28;20084;-88
2022/10/14 10:01:53;;;;;;;13.52;2.08;;;;;;;12.50;100.00;99777.19;4972216;28;20058;-88
2022/10/14 10:04:34;;;;;;;10.98;2.58;;;;;;;12.46;100.00;99740.69;4977337;28;20054;-84
2022/10/14 10:07:04;;;;;;;9.73;2.20;;;;;;;13.04;100.00;99771.22;4969092;28;20047;-84
2022/10/14 10:09:32;;;;;;;6.40;1.70;;;;;;;13.32;100.00;99752.88;4954101;28;20047;-84
2022/10/14 10:11:59;;;;;;;9.70;1.80;;;;;;;13.42;100.00;99738.19;4955991;28;20050;-83
2022/10/14 10:14:31;;;;;;;9.07;1.70;;;;;;;13.72;100.00;99761.63;4951197;28;20051;-83
2022/10/14 10:17:07;;;;;;;7.27;1.60;;;;;;;13.98;100.00;99762.50;4963431;28;20066;-83
2022/10/14 10:19:45;;;;;;;8.80;1.83;;;;;;;14.13;100.00;99759.78;4969401;28;20046;-83
2022/10/14 10:22:28;;;;;;;11.30;2.28;;;;;;;14.26;100.00;99742.22;4961813;28;20057;-83
2022/10/14 10:25:01;;;;;;;16.03;2.30;;;;;;;14.35;100.00;99756.53;4971989;28;20527;-84
2022/10/14 10:27:35;;;;;;;11.52;3.15;;;;;;;14.38;100.00;99758.97;4965005;28;20153;-83
2022/10/14 10:30:17;;;;;;;10.63;2.15;;;;;;;14.13;100.00;99749.25;4967433;28;20105;-83
2022/10/14 10:33:08;;;;;;;6.25;1.73;;;;;;;14.11;100.00;99749.38;4970998;28;20098;-83
2022/10/14 10:36:04;;;;;;;9.57;2.28;;;;;;;13.83;100.00;99748.59;4948024;28;20137;-83
2022/10/14 10:38:34;;;;;;;13.77;2.38;;;;;;;13.85;100.00;99730.09;4960160;28;20047;-84
2022/10/14 10:41:19;;;;;;;9.30;2.10;;;;;;;14.02;100.00;99745.59;4964665;28;20448;-84
2022/10/14 10:44:21;;;;;;;13.13;2.45;;;;;;;14.02;100.00;99750.00;4952127;28;20052;-84
2022/10/14 10:46:56;;;;;;;9.43;1.77;;;;;;;13.94;100.00;99747.06;4949211;29;20051;-83
2022/10/14 10:49:41;;;;;;;11.30;2.35;;;;;;;13.84;100.00;99742.38;4964027;28;20083;-84
2022/10/14 10:52:29;;;;;;;12.60;1.75;;;;;;;14.20;100.00;99729.47;4959379;28;20076;-84
2022/10/14 10:55:10;;;;;;;8.23;1.60;;;;;;;14.44;100.00;99735.66;4956312;28;20486;-84
2022/10/14 10:58:11;;;;;;;12.10;1.90;;;;;;;14.58;100.00;99708.41;4954828;28;20050;-84
2022/10/14 11:01:00;;;;;;;15.40;3.05;;;;;;;14.79;100.00;99699.94;4957791;28;20039;-83
2022/10/14 11:03:43;;;;;;;13.60;2.40;;;;;;;14.56;100.00;99686.56;4968239;28;20050;-83
2022/10/14 11:12:25;;;;;;;12.85;1.95;;;;;;;14.71;84.76;99705.72;4974572;28;20698;-83
2022/10/14 11:15:00;;;;;;;12.68;1.90;;;;;;;14.73;87.95;99717.03;4965849;28;20053;-83
2022/10/14 11:17:32;;;;;;;11.65;2.60;;;;;;;14.36;86.08;99711.69;4949821;28;20453;-84
2022/10/14 11:20:41;;;;;;;15.35;2.35;;;;;;;14.34;89.31;99718.84;4975376;28;20047;-84
2022/10/14 11:23:58;;;;;;;11.75;2.33;;;;;;;14.18;86.53;99699.78;4946520;28;20047;-84
2022/10/14 11:26:40;;;;;;;11.43;1.88;;;;;;;14.38;84.31;99720.31;4967033;28;20122;-82
2022/10/14 11:29:14;;;;;;;11.07;2.47;;;;;;;14.46;94.76;99722.41;4964679;28;20067;-83
2022/10/14 11:31:50;;;;;;;11.13;1.88;;;;;;;14.12;100.00;99702.84;4959007;28;20072;-84
2022/10/14 11:34:35;;;;;;;13.93;2.60;;;;;;;14.14;100.00;99714.94;4975338;28;20428;-84
2022/10/14 11:37:08;;;;;;;11.30;1.88;;;;;;;13.83;100.00;99693.34;4962466;28;20482;-83
2022/10/14 11:39:38;;;;;;;8.13;1.58;;;;;;;14.46;100.00;99718.94;4976126;28;20057;-83
2022/10/14 11:42:34;;;;;;;10.60;2.00;;;;;;;14.23;100.00;99711.66;4978872;28;20066;-84
2022/10/14 11:45:35;;;;;;;9.57;2.13;;;;;;;13.98;100.00;99644.09;4972588;28;20051;-83
2022/10/14 11:48:40;;;;;;;9.57;2.08;;;;;;;14.26;100.00;99701.91;4975141;28;20058;-83
2022/10/14 11:51:18;;;;;;;10.15;2.38;;;;;;;14.10;100.00;99707.38;4988528;28;20101;-82
2022/10/14 11:53:56;;;;;;;9.70;2.00;;;;;;;14.28;100.00;99697.34;4961936;28;20055;-83